Time;durP1;ratioP1;P1;durP2;ratioP2;P2;SDS_P1;SDS_P2;PMS_P1;PMS_P2;Temp;Humidity;BMP_temperature;BMP_pressure;BME280_temperature;BME280_humidity;BME280_pressure;Samples;Min_cycle;Max_cycle;Signal;HPM_P1;HPM_P2
2022/04/18 00:00:04;;;;;;;20.15;11.18;;;;;;;12.29;41.24;101928.16;4891824;29;20045;-48
2022/04/18 00:02:35;;;;;;;18.35;11.35;;;;;;;12.32;40.69;101929.56;4886623;29;20055;-50
2022/04/18 00:05:03;;;;;;;16.48;10.10;;;;;;;12.30;40.74;101929.81;4900342;29;20055;-49
2022/04/18 00:07:31;;;;;;;15.80;9.63;;;;;;;12.27;40.94;101927.59;4899217;29;20037;-51
2022/04/18 00:09:58;;;;;;;17.08;10.00;;;;;;;12.24;40.42;101930.84;4900263;29;20044;-50
2022/04/18 00:12:26;;;;;;;17.60;10.27;;;;;;;12.21;40.95;101925.84;4899208;29;20136;-48
2022/04/18 00:14:54;;;;;;;17.50;9.57;;;;;;;12.15;41.53;101924.13;4889213;29;20048;-48
2022/04/18 00:17:21;;;;;;;17.58;9.65;;;;;;;12.11;41.06;101922.97;4895826;29;20048;-47
2022/04/18 00:19:49;;;;;;;17.48;9.50;;;;;;;12.10;41.53;101927.63;4900211;29;20063;-53
2022/04/18 00:22:17;;;;;;;16.17;9.27;;;;;;;12.14;40.81;101922.47;4899173;29;20048;-52
2022/04/18 00:24:44;;;;;;;18.27;9.68;;;;;;;12.13;40.61;101918.91;4899664;29;20515;-52
2022/04/18 00:27:12;;;;;;;14.32;9.50;;;;;;;12.09;40.53;101920.50;4897857;29;20044;-52
2022/04/18 00:29:40;;;;;;;18.63;9.38;;;;;;;12.06;41.16;101918.25;4898602;29;20092;-49
2022/04/18 00:32:08;;;;;;;13.57;8.68;;;;;;;12.05;40.72;101916.63;4898565;29;20051;-53
2022/04/18 00:34:35;;;;;;;15.32;8.90;;;;;;;12.00;41.23;101911.09;4899241;29;20052;-52
2022/04/18 00:37:03;;;;;;;14.77;8.68;;;;;;;11.96;41.46;101909.94;4898492;29;20048;-52
2022/04/18 00:39:31;;;;;;;14.80;8.65;;;;;;;11.97;40.41;101913.47;4930079;29;20051;-51
2022/04/18 00:41:59;;;;;;;14.13;8.75;;;;;;;11.96;40.68;101909.94;4898463;29;20158;-47
2022/04/18 00:44:26;;;;;;;15.55;8.43;;;;;;;11.96;40.94;101907.19;4882653;29;20145;-52
2022/04/18 00:46:54;;;;;;;13.48;8.05;;;;;;;11.91;40.81;101913.41;4899095;29;20448;-50
2022/04/18 00:49:22;;;;;;;12.82;7.70;;;;;;;11.83;40.70;101905.59;4899451;29;20048;-49
2022/04/18 00:51:49;;;;;;;13.52;7.63;;;;;;;11.77;41.03;101901.16;4898219;29;20515;-49
2022/04/18 00:54:17;;;;;;;11.13;7.13;;;;;;;11.77;41.34;101906.59;4910396;29;20424;-49
2022/04/18 00:56:45;;;;;;;14.63;7.45;;;;;;;11.80;41.17;101908.81;4913326;29;20036;-46
2022/04/18 00:59:13;;;;;;;13.43;7.00;;;;;;;11.78;41.22;101908.25;4890296;29;20052;-51
2022/04/18 01:01:41;;;;;;;12.38;6.85;;;;;;;11.76;41.70;101904.13;4879144;29;20131;-50
2022/04/18 01:04:09;;;;;;;11.73;6.47;;;;;;;11.75;41.23;101897.84;4873536;29;20073;-53
2022/04/18 01:06:36;;;;;;;11.25;6.40;;;;;;;11.70;41.28;101895.84;4883673;29;20044;-53
2022/04/18 01:09:07;;;;;;;10.80;5.65;;;;;;;11.70;41.78;101900.47;4882062;29;20511;-49
2022/04/18 01:11:34;;;;;;;12.20;6.50;;;;;;;11.73;41.59;101902.72;4929916;29;20082;-48
2022/04/18 01:14:08;;;;;;;10.65;6.30;;;;;;;11.73;41.96;101899.97;4899136;29;20436;-51
2022/04/18 01:16:56;;;;;;;10.82;6.18;;;;;;;11.66;41.53;101899.31;4898027;29;20076;-52
2022/04/18 01:19:37;;;;;;;12.27;5.70;;;;;;;11.66;41.85;101893.84;4897916;29;20049;-46
2022/04/18 01:22:20;;;;;;;10.27;6.00;;;;;;;11.67;42.08;101899.09;4899026;29;20119;-53
2022/04/18 01:30:26;;;;;;;11.60;5.85;;;;;;;11.68;41.41;101897.16;4884607;29;20063;-52
2022/04/18 01:32:54;;;;;;;10.00;6.13;;;;;;;11.62;41.76;101893.53;4897590;29;20045;-53
2022/04/18 01:35:22;;;;;;;12.02;5.95;;;;;;;11.61;41.18;101891.06;4898601;29;20059;-53
2022/04/18 01:37:50;;;;;;;10.32;5.78;;;;;;;11.57;41.72;101895.34;4896531;29;20048;-54
2022/04/18 01:40:18;;;;;;;10.32;5.55;;;;;;;11.56;41.71;101893.69;4898667;29;20045;-48
2022/04/18 01:42:46;;;;;;;11.38;5.63;;;;;;;11.55;41.67;101901.06;4897123;29;20044;-51
2022/04/18 01:45:15;;;;;;;9.32;5.70;;;;;;;11.52;42.30;101891.47;4896638;29;20060;-52
2022/04/18 01:47:47;;;;;;;11.60;5.63;;;;;;;11.51;41.38;101895.25;4882446;29;20036;-53
2022/04/18 01:50:17;;;;;;;11.45;5.55;;;;;;;11.48;41.93;101893.03;4896351;29;20411;-53
2022/04/18 01:52:45;;;;;;;8.40;5.22;;;;;;;11.47;42.35;101896.84;4898491;29;20056;-50
2022/04/18 01:55:13;;;;;;;8.95;5.40;;;;;;;11.45;41.60;101887.25;4893968;29;20041;-49
2022/04/18 01:57:46;;;;;;;11.18;5.30;;;;;;;11.36;42.46;101888.75;4895161;29;20067;-50
2022/04/18 02:00:14;;;;;;;10.10;4.65;;;;;;;11.31;42.79;101892.22;4897010;29;20083;-53
2022/04/18 02:02:42;;;;;;;8.95;4.93;;;;;;;11.33;42.52;101890.06;4896812;29;20054;-53
2022/04/18 02:05:10;;;;;;;11.63;4.95;;;;;;;11.37;42.13;101890.38;4898306;29;20076;-52
2022/04/18 02:07:39;;;;;;;8.98;4.95;;;;;;;11.41;41.75;101891.56;4895788;29;20055;-51
2022/04/18 02:10:09;;;;;;;8.60;4.50;;;;;;;11.43;41.67;101890.22;4896541;29;20124;-49
2022/04/18 02:12:37;;;;;;;10.50;4.70;;;;;;;11.43;42.32;101886.69;4896877;29;20052;-51
2022/04/18 02:15:08;;;;;;;8.63;5.03;;;;;;;11.38;41.79;101881.97;4896592;29;20104;-53
2022/04/18 02:18:01;;;;;;;11.67;4.73;;;;;;;11.28;42.52;101882.63;4894964;29;20101;-50
2022/04/18 02:20:29;;;;;;;9.45;4.95;;;;;;;11.22;42.43;101877.31;4897924;29;20404;-52
2022/04/18 02:22:57;;;;;;;7.70;4.53;;;;;;;11.20;42.29;101879.47;4896924;29;20041;-52
2022/04/18 02:25:25;;;;;;;9.13;4.78;;;;;;;11.15;42.61;101876.66;4896662;29;20088;-49
2022/04/18 02:27:58;;;;;;;7.35;4.50;;;;;;;11.09;42.79;101879.28;4891185;29;20127;-53
2022/04/18 02:30:26;;;;;;;9.35;4.72;;;;;;;10.99;43.29;101873.66;4878245;29;20056;-54
2022/04/18 02:32:53;;;;;;;8.02;4.55;;;;;;;10.98;43.30;101880.16;4878664;29;20068;-48
2022/04/18 02:35:25;;;;;;;8.82;4.85;;;;;;;10.97;42.99;101869.53;4896467;29;20052;-52
2022/04/18 02:37:56;;;;;;;10.15;4.75;;;;;;;10.95;43.29;101877.94;4896269;29;20132;-44
2022/04/18 02:40:34;;;;;;;9.15;4.20;;;;;;;10.93;43.48;101874.63;4900470;29;20047;-50
2022/04/18 02:43:04;;;;;;;9.00;4.63;;;;;;;10.88;43.56;101860.91;4900168;29;20071;-46
2022/04/18 02:45:33;;;;;;;8.20;4.88;;;;;;;10.83;43.19;101871.72;4899504;29;20083;-46
2022/04/18 02:48:01;;;;;;;6.88;4.32;;;;;;;10.75;43.59;101862.03;4891657;29;20056;-49
2022/04/18 02:50:31;;;;;;;9.82;4.40;;;;;;;10.67;44.04;101870.56;4875526;29;20093;-47
2022/04/18 02:52:59;;;;;;;9.43;4.38;;;;;;;10.59;44.59;101865.53;4900176;29;20504;-48
2022/04/18 02:55:45;;;;;;;;;;;;;;;10.56;44.32;101864.13;4902025;29;20476;-51
2022/04/18 02:58:13;;;;;;;9.88;4.35;;;;;;;10.57;44.20;101859.47;4899103;29;20355;-53
2022/04/18 03:00:42;;;;;;;8.85;4.75;;;;;;;10.55;44.67;101856.16;4899881;29;20045;-52
2022/04/18 03:03:10;;;;;;;12.40;4.70;;;;;;;10.49;44.67;101849.81;4900150;29;20109;-53
2022/04/18 03:05:38;;;;;;;7.75;4.55;;;;;;;10.52;44.75;101852.03;4900191;29;20502;-48
2022/04/18 03:08:07;;;;;;;8.25;4.47;;;;;;;10.57;44.77;101849.41;4898949;29;20041;-52
2022/04/18 03:13:26;;;;;;;8.85;4.80;;;;;;;10.63;44.54;101848.44;4899831;29;20052;-50
2022/04/18 03:15:55;;;;;;;8.00;4.53;;;;;;;10.60;44.79;101845.38;4899582;29;20045;-52
2022/04/18 03:18:24;;;;;;;10.80;4.57;;;;;;;10.59;44.94;101841.81;4899147;29;20044;-52
2022/04/18 03:20:52;;;;;;;14.10;4.50;;;;;;;10.61;44.84;101844.31;4899732;29;20052;-45
2022/04/18 03:23:20;;;;;;;9.30;4.65;;;;;;;10.62;45.05;101841.31;4898375;29;20385;-45
2022/04/18 03:26:08;;;;;;;7.95;4.30;;;;;;;10.57;45.11;101838.50;4899158;29;20041;-45
2022/04/18 03:28:43;;;;;;;10.73;4.38;;;;;;;10.51;45.07;101839.50;4896455;29;20040;-55
2022/04/18 03:31:12;;;;;;;10.50;4.13;;;;;;;10.48;45.09;101845.41;4899595;29;20055;-48
2022/04/18 03:33:40;;;;;;;8.10;4.38;;;;;;;10.47;44.81;101832.88;4899683;29;20134;-46
2022/04/18 03:41:44;;;;;;;8.18;4.50;;;;;;;10.43;44.93;101831.69;4898922;29;20049;-48
2022/04/18 03:44:12;;;;;;;9.98;4.32;;;;;;;10.39;44.85;101827.78;4898704;29;20061;-46
2022/04/18 03:46:40;;;;;;;8.50;4.10;;;;;;;10.38;45.00;101834.31;4899514;29;20070;-49
2022/04/18 03:49:08;;;;;;;10.95;4.65;;;;;;;10.33;44.60;101832.31;4899114;29;20053;-53
2022/04/18 03:51:39;;;;;;;9.00;4.40;;;;;;;10.31;44.87;101836.34;4898445;29;20045;-53
2022/04/18 03:54:10;;;;;;;8.35;4.38;;;;;;;10.32;44.57;101840.72;4884378;29;20516;-45
2022/04/18 03:56:38;;;;;;;9.50;4.40;;;;;;;10.27;44.27;101838.69;4880218;29;20055;-45
2022/04/18 03:59:09;;;;;;;8.40;4.38;;;;;;;10.22;44.83;101835.84;4897063;29;20408;-46
2022/04/18 04:01:57;;;;;;;8.18;3.97;;;;;;;10.13;44.75;101827.25;4897562;29;21009;-51
2022/04/18 04:04:27;;;;;;;8.65;4.20;;;;;;;10.09;44.72;101831.50;4897172;29;20527;-53
2022/04/18 04:06:59;;;;;;;10.40;4.28;;;;;;;10.11;44.83;101829.38;4882628;29;20393;-52
2022/04/18 04:09:27;;;;;;;8.80;4.38;;;;;;;10.12;44.79;101831.00;4897678;29;20048;-54
2022/04/18 04:11:55;;;;;;;8.38;4.15;;;;;;;10.09;44.98;101826.06;4882544;29;20127;-54
2022/04/18 04:14:23;;;;;;;7.93;4.03;;;;;;;10.09;45.07;101834.22;4896785;29;20518;-53
2022/04/18 04:16:51;;;;;;;9.32;4.10;;;;;;;10.09;45.01;101822.50;4896944;29;20044;-53
2022/04/18 04:19:18;;;;;;;8.70;3.90;;;;;;;10.05;45.16;101822.16;4897493;29;20394;-54
2022/04/18 04:21:47;;;;;;;8.57;4.47;;;;;;;10.02;45.07;101830.81;4896705;29;20603;-51
2022/04/18 04:24:15;;;;;;;7.65;4.07;;;;;;;9.98;44.97;101824.19;4897945;29;20079;-53
2022/04/18 04:26:44;;;;;;;6.85;4.00;;;;;;;9.93;45.33;101822.19;4896258;29;20055;-47
2022/04/18 04:29:17;;;;;;;10.05;4.20;;;;;;;9.91;45.11;101826.19;4897143;29;20500;-46
2022/04/18 04:32:17;;;;;;;9.13;4.35;;;;;;;9.94;45.30;101825.75;4906192;29;20047;-53
2022/04/18 04:34:46;;;;;;;7.85;4.20;;;;;;;9.97;45.38;101827.97;4879958;29;20044;-54
2022/04/18 04:37:26;;;;;;;8.20;4.50;;;;;;;9.97;44.95;101823.34;4883292;29;20063;-54
2022/04/18 04:40:00;;;;;;;9.05;4.05;;;;;;;9.99;44.97;101825.84;4913310;29;20083;-50
2022/04/18 04:42:33;;;;;;;7.10;3.90;;;;;;;10.01;44.67;101821.00;4895616;29;20124;-51
2022/04/18 04:45:01;;;;;;;9.07;4.00;;;;;;;10.00;44.91;101827.50;4895138;29;20458;-53
2022/04/18 04:47:49;;;;;;;8.02;4.32;;;;;;;9.93;45.14;101826.78;4894454;29;20049;-51
2022/04/18 04:50:17;;;;;;;9.43;4.03;;;;;;;9.92;45.13;101823.25;4898143;29;20488;-52
2022/04/18 04:52:54;;;;;;;6.13;4.00;;;;;;;9.96;45.09;101820.88;4898077;29;20052;-54
2022/04/18 04:55:25;;;;;;;8.00;4.30;;;;;;;9.96;44.95;101827.16;4898066;29;20040;-55
2022/04/18 04:57:52;;;;;;;10.27;4.30;;;;;;;9.94;44.72;101823.84;4898093;29;20032;-53
2022/04/18 05:00:26;;;;;;;7.93;4.07;;;;;;;9.97;45.16;101836.16;4897450;29;20064;-53
2022/04/18 05:03:09;;;;;;;7.95;4.30;;;;;;;9.97;45.01;101831.53;4896475;29;20097;-55
2022/04/18 05:05:37;;;;;;;8.20;4.22;;;;;;;9.98;45.02;101840.50;4897555;29;20044;-55
2022/04/18 05:08:12;;;;;;;8.60;4.20;;;;;;;9.96;44.81;101839.94;4898325;29;20051;-52
2022/04/18 05:10:41;;;;;;;11.90;4.47;;;;;;;9.92;44.87;101839.59;4896652;29;20508;-48
2022/04/18 05:13:17;;;;;;;17.02;4.63;;;;;;;9.91;45.31;101831.63;4897777;29;20493;-46
2022/04/18 05:15:47;;;;;;;8.95;4.13;;;;;;;9.89;45.52;101837.34;4897426;29;20456;-53
2022/04/18 05:18:29;;;;;;;9.93;4.13;;;;;;;9.90;45.53;101846.34;4892544;29;20041;-53
2022/04/18 05:20:57;;;;;;;10.57;4.30;;;;;;;9.90;45.48;101849.06;4890457;29;20480;-52
2022/04/18 05:23:25;;;;;;;8.48;4.20;;;;;;;9.91;45.46;101850.69;4888005;29;20128;-54
2022/04/18 05:25:56;;;;;;;10.25;4.20;;;;;;;9.90;45.44;101843.59;4896781;29;20045;-53
2022/04/18 05:28:24;;;;;;;13.00;4.80;;;;;;;9.92;45.43;101852.38;4894025;29;20032;-52
2022/04/18 05:30:57;;;;;;;8.63;4.30;;;;;;;9.97;45.56;101852.47;4894092;29;20051;-54
2022/04/18 05:33:26;;;;;;;6.18;3.90;;;;;;;10.01;45.15;101854.50;4896188;29;20111;-54
2022/04/18 05:36:10;;;;;;;8.50;4.32;;;;;;;10.09;44.54;101852.47;4887575;29;20500;-53
2022/04/18 05:38:38;;;;;;;7.63;3.88;;;;;;;10.09;44.20;101856.00;4889039;29;20040;-53
2022/04/18 05:41:12;;;;;;;6.57;3.92;;;;;;;10.09;44.40;101853.28;4896953;29;20077;-56
2022/04/18 05:43:43;;;;;;;9.50;4.22;;;;;;;10.11;44.53;101851.16;4895453;29;20147;-47
2022/04/18 05:46:11;;;;;;;7.47;4.35;;;;;;;10.13;44.25;101850.94;4896662;29;20037;-53
2022/04/18 05:48:40;;;;;;;9.35;4.45;;;;;;;10.14;44.48;101847.13;4886252;29;21813;-53
2022/04/18 05:51:08;;;;;;;15.13;4.80;;;;;;;10.14;44.40;101850.66;4896245;29;20066;-54
2022/04/18 05:53:35;;;;;;;8.60;4.13;;;;;;;10.15;44.78;101852.34;4896971;29;20040;-53
2022/04/18 05:56:12;;;;;;;8.60;4.25;;;;;;;10.19;44.51;101849.94;4900280;29;20044;-53
2022/04/18 05:58:45;;;;;;;12.48;4.70;;;;;;;10.20;44.57;101847.00;4898429;29;20044;-54
2022/04/18 06:01:35;;;;;;;8.40;4.32;;;;;;;10.20;44.38;101844.28;4897648;29;20421;-54
2022/04/18 06:04:10;;;;;;;10.95;4.80;;;;;;;10.22;44.25;101839.41;4894438;29;21589;-51
2022/04/18 06:06:40;;;;;;;8.80;4.38;;;;;;;10.24;44.43;101841.88;4896191;29;20108;-50
2022/04/18 06:09:08;;;;;;;7.82;4.13;;;;;;;10.24;44.43;101844.59;4885197;29;20081;-52
2022/04/18 06:11:36;;;;;;;10.25;4.38;;;;;;;10.25;44.31;101846.28;4899833;29;20124;-50
2022/04/18 06:14:26;;;;;;;8.07;4.32;;;;;;;10.29;44.30;101839.28;4898088;29;20040;-47
2022/04/18 06:16:54;;;;;;;8.52;4.25;;;;;;;10.32;44.03;101841.56;4898152;29;20124;-50
2022/04/18 06:19:23;;;;;;;9.35;4.03;;;;;;;10.37;43.80;101843.56;4882277;29;20049;-48
2022/04/18 06:21:51;;;;;;;7.53;3.70;;;;;;;10.40;43.76;101843.06;4890157;29;20056;-48
2022/04/18 06:24:20;;;;;;;5.93;3.88;;;;;;;10.43;43.63;101843.41;4898881;29;20088;-49
2022/04/18 06:27:09;;;;;;;9.45;4.20;;;;;;;10.46;43.61;101850.25;4900537;29;20539;-50
2022/04/18 06:29:38;;;;;;;8.40;3.70;;;;;;;10.48;43.58;101850.84;4897836;29;20452;-54
2022/04/18 06:32:08;;;;;;;8.30;3.85;;;;;;;10.50;43.80;101853.34;4900687;29;20048;-50
2022/04/18 06:34:37;;;;;;;10.13;3.72;;;;;;;10.52;43.89;101853.94;4899398;29;20053;-50
2022/04/18 06:37:11;;;;;;;7.93;3.58;;;;;;;10.56;44.38;101857.81;4900242;29;20044;-53
2022/04/18 06:39:46;;;;;;;7.03;3.55;;;;;;;10.57;44.24;101857.56;4900105;29;20096;-49
2022/04/18 06:42:18;;;;;;;12.27;3.97;;;;;;;10.61;44.52;101864.22;4884607;29;20523;-52
2022/04/18 06:44:54;;;;;;;7.88;3.35;;;;;;;10.65;45.38;101862.66;4895841;29;20061;-53
2022/04/18 06:47:22;;;;;;;9.38;3.88;;;;;;;10.66;44.62;101866.22;4890377;29;20037;-52
2022/04/18 06:50:02;;;;;;;10.23;4.30;;;;;;;10.63;44.33;101864.78;4917059;29;20052;-51
2022/04/18 06:52:50;;;;;;;7.15;4.03;;;;;;;10.65;43.97;101868.13;4894079;29;20058;-49
2022/04/18 06:58:31;;;;;;;6.68;3.75;;;;;;;10.65;43.99;101862.66;4883968;29;20056;-53
2022/04/18 07:01:01;;;;;;;7.85;3.20;;;;;;;10.69;44.10;101845.81;4899753;29;20043;-53
2022/04/18 07:03:29;;;;;;;7.78;3.90;;;;;;;10.75;44.08;101856.56;4899194;29;20045;-54
2022/04/18 07:05:56;;;;;;;6.82;3.85;;;;;;;10.79;44.12;101851.44;4900474;29;20048;-52
2022/04/18 07:08:24;;;;;;;6.85;3.97;;;;;;;10.83;44.33;101852.63;4899469;29;20441;-52
2022/04/18 07:10:54;;;;;;;6.72;3.83;;;;;;;10.84;44.23;101848.81;4899948;29;20047;-51
2022/04/18 07:13:22;;;;;;;7.22;3.90;;;;;;;10.85;44.52;101853.22;4898023;29;20040;-52
2022/04/18 07:15:50;;;;;;;6.72;4.00;;;;;;;10.87;44.28;101853.78;4870540;29;20053;-54
2022/04/18 07:18:19;;;;;;;8.63;4.00;;;;;;;10.88;44.86;101844.53;4898582;29;20127;-51
2022/04/18 07:20:47;;;;;;;8.90;4.68;;;;;;;10.91;44.65;101844.03;4898583;29;20083;-51
2022/04/18 07:23:16;;;;;;;6.63;3.78;;;;;;;10.96;44.94;101841.41;4897381;29;20516;-49
2022/04/18 07:25:57;;;;;;;10.02;4.15;;;;;;;10.99;44.98;101846.38;4893803;29;20132;-50
2022/04/18 07:28:30;;;;;;;8.45;4.18;;;;;;;11.02;45.23;101842.34;4894871;29;20475;-52
2022/04/18 07:30:59;;;;;;;7.90;4.07;;;;;;;11.04;45.05;101841.00;4887249;29;20045;-49
2022/04/18 07:33:26;;;;;;;11.30;4.32;;;;;;;11.08;45.45;101853.06;4885542;29;20381;-52
2022/04/18 07:35:57;;;;;;;6.90;3.90;;;;;;;11.12;45.06;101844.41;4890040;29;20081;-49
2022/04/18 07:41:12;;;;;;;6.97;3.97;;;;;;;11.20;44.82;101846.72;4899528;29;20499;-48
2022/04/18 07:43:44;;;;;;;10.20;3.90;;;;;;;11.25;44.94;101855.00;4896376;29;20068;-48
2022/04/18 07:46:15;;;;;;;9.55;4.72;;;;;;;11.30;44.54;101841.44;4890831;29;20781;-50
2022/04/18 07:48:45;;;;;;;11.98;4.35;;;;;;;11.40;45.26;101847.06;4902653;29;20048;-52
2022/04/18 07:54:06;;;;;;;6.30;3.35;;;;;;;11.52;43.68;101847.81;4880337;29;20497;-50
2022/04/18 07:56:36;;;;;;;6.80;3.30;;;;;;;11.54;43.91;101842.09;4880239;29;20095;-48
2022/04/18 07:59:04;;;;;;;7.85;3.38;;;;;;;11.56;43.66;101839.13;4895674;29;20060;-52
2022/04/18 08:01:36;;;;;;;6.10;3.53;;;;;;;11.59;43.54;101836.69;4884041;29;20045;-50
2022/04/18 08:04:04;;;;;;;5.40;3.20;;;;;;;11.60;43.72;101835.63;4898666;29;20074;-51
2022/04/18 08:06:34;;;;;;;12.10;4.45;;;;;;;11.68;44.54;101832.47;4898491;29;20100;-51
2022/04/18 08:09:22;;;;;;;7.90;3.58;;;;;;;11.71;43.00;101836.59;4898619;29;20072;-48
2022/04/18 08:11:50;;;;;;;7.75;3.72;;;;;;;11.77;42.05;101832.06;4899048;29;20052;-48
2022/04/18 08:14:25;;;;;;;17.33;10.63;;;;;;;11.79;42.37;101830.72;4899214;29;20052;-48
2022/04/18 08:17:00;;;;;;;12.40;5.28;;;;;;;11.84;42.67;101825.34;4898764;29;20115;-46
2022/04/18 08:19:42;;;;;;;6.78;3.70;;;;;;;11.89;41.76;101825.44;4896436;29;20045;-47
2022/04/18 08:22:10;;;;;;;7.82;3.67;;;;;;;11.94;41.31;101830.16;4880473;29;20041;-54
2022/04/18 08:24:57;;;;;;;9.98;4.32;;;;;;;12.01;41.45;101829.97;4880763;29;20041;-52
2022/04/18 08:27:43;;;;;;;;;;;;;;;12.05;41.23;101831.09;4893189;29;20404;-51
2022/04/18 08:30:20;;;;;;;7.28;4.38;;;;;;;12.11;41.91;101830.91;4898425;29;19923;-50
2022/04/18 08:32:54;;;;;;;6.80;3.85;;;;;;;12.21;41.76;101835.69;4898357;29;20049;-50
2022/04/18 08:35:22;;;;;;;18.92;11.55;;;;;;;12.28;41.16;101830.84;4882575;29;20048;-50
2022/04/18 08:37:50;;;;;;;10.75;5.32;;;;;;;12.33;41.30;101830.09;4897589;29;20385;-52
2022/04/18 08:40:20;;;;;;;19.58;12.57;;;;;;;12.40;40.60;101836.19;4899523;29;20071;-47
2022/04/18 08:42:57;;;;;;;9.50;5.72;;;;;;;12.41;40.50;101826.06;4883232;29;20052;-49
2022/04/18 08:45:26;;;;;;;5.80;3.63;;;;;;;12.45;39.85;101824.50;4897479;29;20419;-45
2022/04/18 08:53:31;;;;;;;9.18;4.00;;;;;;;12.55;41.35;101825.44;4882191;29;20044;-44
2022/04/18 08:56:02;;;;;;;13.82;9.27;;;;;;;12.59;40.17;101831.22;4897944;29;20048;-44
2022/04/18 08:58:32;;;;;;;7.90;4.47;;;;;;;12.66;40.06;101823.63;4897513;29;20068;-44
2022/04/18 09:01:03;;;;;;;9.32;4.28;;;;;;;12.75;40.92;101819.34;4882883;29;20041;-46
2022/04/18 09:03:44;;;;;;;13.93;5.00;;;;;;;12.82;42.39;101821.91;4899060;29;20071;-53
2022/04/18 09:06:13;;;;;;;8.32;3.83;;;;;;;12.83;39.60;101825.44;4897482;29;20057;-49
2022/04/18 09:08:57;;;;;;;8.30;3.80;;;;;;;12.85;40.18;101815.06;4897569;29;20056;-48
2022/04/18 09:11:36;;;;;;;7.72;3.70;;;;;;;12.87;39.07;101815.63;4897463;29;20052;-46
2022/04/18 09:14:11;;;;;;;7.07;3.83;;;;;;;12.90;39.09;101812.38;4882741;29;20528;-48
2022/04/18 09:16:40;;;;;;;13.93;5.43;;;;;;;12.98;39.42;101822.84;4897455;29;20128;-48
2022/04/18 09:19:12;;;;;;;6.97;3.88;;;;;;;12.99;38.54;101819.03;4879140;29;20049;-50
2022/04/18 09:21:59;;;;;;;6.97;3.95;;;;;;;13.08;37.83;101820.19;4878748;29;20053;-51
2022/04/18 09:24:36;;;;;;;9.20;5.18;;;;;;;13.15;37.96;101822.72;4878771;29;20450;-51
2022/04/18 09:27:27;;;;;;;10.73;4.82;;;;;;;13.22;41.58;101818.66;4883091;29;20044;-51
2022/04/18 09:30:16;;;;;;;12.02;4.10;;;;;;;13.28;40.20;101810.56;4897387;29;20045;-48
2022/04/18 09:33:07;;;;;;;9.70;3.83;;;;;;;13.26;37.95;101813.50;4897490;29;20048;-53
2022/04/18 09:35:50;;;;;;;6.85;3.78;;;;;;;13.28;37.38;101805.91;4883709;29;20044;-49
2022/04/18 09:38:19;;;;;;;12.18;4.10;;;;;;;13.34;37.73;101804.03;4896706;29;20503;-48
2022/04/18 09:41:32;;;;;;;6.93;3.65;;;;;;;13.39;36.40;101798.56;4897359;29;20052;-51
2022/04/18 09:44:26;;;;;;;6.90;3.25;;;;;;;13.45;36.69;101799.47;4885473;29;20131;-51
2022/04/18 09:46:54;;;;;;;5.25;3.40;;;;;;;13.55;36.40;101800.34;4896806;29;20041;-50
2022/04/18 09:49:37;;;;;;;8.52;4.07;;;;;;;13.63;38.65;101802.56;4880916;29;20132;-51
2022/04/18 09:52:12;;;;;;;11.00;4.60;;;;;;;13.68;39.88;101799.03;4881952;29;20048;-51
2022/04/18 09:54:54;;;;;;;8.82;4.10;;;;;;;13.69;40.71;101797.97;4896959;29;20484;-48
2022/04/18 09:57:26;;;;;;;9.15;3.92;;;;;;;13.72;38.71;101788.41;4896948;29;20566;-49
2022/04/18 09:59:56;;;;;;;7.15;3.53;;;;;;;13.73;36.68;101790.84;4898144;29;20111;-47
2022/04/18 10:02:24;;;;;;;5.88;3.70;;;;;;;13.77;36.46;101791.16;4897164;29;20076;-47
2022/04/18 10:04:53;;;;;;;7.72;3.78;;;;;;;13.82;36.18;101785.69;4898138;29;20348;-50
2022/04/18 10:07:21;;;;;;;8.50;3.53;;;;;;;13.85;37.28;101780.53;4896501;29;20104;-48
2022/04/18 10:09:48;;;;;;;7.82;3.65;;;;;;;13.85;35.74;101782.41;4896694;29;20053;-49
2022/04/18 10:12:16;;;;;;;5.13;3.40;;;;;;;13.90;35.64;101779.69;4897797;29;20040;-51
2022/04/18 10:14:44;;;;;;;6.18;3.67;;;;;;;13.95;35.82;101782.50;4897811;29;20066;-47
2022/04/18 10:17:12;;;;;;;8.85;3.83;;;;;;;14.01;35.32;101781.41;4898175;29;20048;-49
2022/04/18 10:20:01;;;;;;;7.45;3.40;;;;;;;14.10;35.31;101778.16;4896377;29;20415;-44
2022/04/18 10:23:00;;;;;;;8.50;3.90;;;;;;;14.15;36.06;101775.44;4897781;29;20055;-49
2022/04/18 10:25:45;;;;;;;6.57;3.55;;;;;;;14.15;35.08;101769.97;4898039;29;20049;-47
2022/04/18 10:28:19;;;;;;;12.35;4.40;;;;;;;14.20;41.69;101767.22;4897870;29;20512;-50
2022/04/18 10:30:58;;;;;;;10.82;4.55;;;;;;;14.31;40.46;101760.69;4897458;29;20416;-49
2022/04/18 10:33:26;;;;;;;13.15;4.53;;;;;;;14.31;40.64;101760.69;4897944;29;20049;-49
2022/04/18 10:36:00;;;;;;;8.80;4.13;;;;;;;14.33;35.85;101761.22;4898010;29;20053;-48
2022/04/18 10:38:33;;;;;;;6.00;3.50;;;;;;;14.31;36.01;101755.22;4898018;29;20052;-52
2022/04/18 10:41:15;;;;;;;7.45;3.85;;;;;;;14.34;35.16;101759.34;4897594;29;20052;-49
2022/04/18 10:43:59;;;;;;;6.00;3.70;;;;;;;14.39;35.12;101759.34;4897696;29;20087;-50
2022/04/18 10:46:27;;;;;;;6.85;3.67;;;;;;;14.43;36.20;101750.31;4897657;29;20060;-49
2022/04/18 10:48:56;;;;;;;8.07;3.80;;;;;;;14.48;36.71;101747.56;4895479;29;20409;-50
2022/04/18 10:51:33;;;;;;;9.25;3.88;;;;;;;14.61;34.92;101743.50;4896640;29;20053;-48
2022/04/18 10:54:23;;;;;;;10.52;4.45;;;;;;;14.72;44.88;101741.59;4896973;29;20460;-45
2022/04/18 10:56:53;;;;;;;11.95;5.05;;;;;;;14.89;41.99;101739.41;4878074;29;20060;-47
2022/04/18 10:59:25;;;;;;;9.40;3.90;;;;;;;14.90;36.36;101735.56;4922955;29;20071;-48
2022/04/18 11:01:55;;;;;;;12.77;4.47;;;;;;;14.90;39.65;101741.03;4896808;29;20045;-48
2022/04/18 11:04:28;;;;;;;8.50;4.18;;;;;;;14.88;35.72;101743.22;4882199;29;20076;-49
2022/04/18 11:07:04;;;;;;;6.32;3.63;;;;;;;14.89;34.09;101738.59;4912184;29;20060;-49
2022/04/18 11:09:36;;;;;;;7.68;4.15;;;;;;;14.95;34.36;101739.41;4886598;29;20120;-49
2022/04/18 11:12:24;;;;;;;8.05;4.30;;;;;;;14.97;40.68;101737.22;4890686;29;20070;-48
2022/04/18 11:14:54;;;;;;;6.68;3.70;;;;;;;14.97;36.82;101731.72;4899772;29;20481;-49
2022/04/18 11:17:30;;;;;;;6.97;4.25;;;;;;;14.93;33.84;101728.69;4900046;29;20049;-49
2022/04/18 11:20:28;;;;;;;9.93;4.30;;;;;;;14.99;34.49;101715.81;4899391;29;20523;-49
2022/04/18 11:23:27;;;;;;;11.88;3.80;;;;;;;15.09;35.29;101713.03;4900913;29;20119;-49
2022/04/18 11:25:57;;;;;;;10.13;4.05;;;;;;;15.18;36.23;101727.84;4901179;29;20056;-48
2022/04/18 11:28:43;;;;;;;9.73;4.43;;;;;;;15.20;33.41;101709.19;4899309;29;20104;-48
2022/04/18 11:31:17;;;;;;;;;;;;;;;15.28;34.11;101710.53;4900108;29;20139;-47
2022/04/18 11:33:44;;;;;;;8.13;4.00;;;;;;;15.43;33.63;101713.25;4899790;29;20290;-49
2022/04/18 11:36:13;;;;;;;7.10;3.90;;;;;;;15.54;33.33;101703.06;4900782;29;20052;-50
2022/04/18 11:38:42;;;;;;;6.90;3.78;;;;;;;15.57;34.49;101701.69;4899944;29;20050;-50
2022/04/18 11:41:13;;;;;;;8.85;3.80;;;;;;;15.51;33.88;101695.34;4898626;29;20051;-48
2022/04/18 11:43:41;;;;;;;7.25;3.67;;;;;;;15.61;33.03;101698.09;4899138;29;20385;-52
2022/04/18 11:46:09;;;;;;;5.43;3.28;;;;;;;15.59;33.97;101705.78;4901108;29;20047;-51
2022/04/18 11:48:38;;;;;;;6.30;3.30;;;;;;;15.58;31.28;101704.13;4899626;29;20044;-53
2022/04/18 11:51:06;;;;;;;6.80;3.63;;;;;;;15.65;30.26;101703.84;4901149;29;20052;-51
2022/04/18 11:53:35;;;;;;;5.25;3.30;;;;;;;15.64;30.67;101703.00;4904386;29;20041;-52
2022/04/18 11:56:04;;;;;;;11.05;4.35;;;;;;;15.67;34.37;101702.44;4899671;29;20415;-49
2022/04/18 11:58:36;;;;;;;9.82;4.38;;;;;;;15.72;40.21;101704.38;4899949;29;20076;-51
2022/04/18 12:06:46;;;;;;;6.53;3.50;;;;;;;15.70;31.78;101706.59;4900254;29;20185;-51
2022/04/18 12:09:16;;;;;;;6.63;3.83;;;;;;;15.72;32.78;101704.38;4891519;29;20465;-47
2022/04/18 12:11:44;;;;;;;7.20;3.90;;;;;;;15.71;31.66;101692.56;4879396;29;20417;-50
2022/04/18 12:14:12;;;;;;;7.68;3.95;;;;;;;15.69;31.44;101693.94;4898808;29;20048;-53
2022/04/18 12:16:41;;;;;;;6.20;3.53;;;;;;;15.70;31.40;101690.91;4900059;29;20409;-51
2022/04/18 12:19:15;;;;;;;6.35;3.50;;;;;;;15.75;32.11;101693.66;4895443;29;20104;-52
2022/04/18 12:21:44;;;;;;;7.97;3.50;;;;;;;15.80;32.38;101692.78;4881102;29;20053;-53